createdAt,value
2022-11-23T00:01:16.843Z,43.86
2022-11-23T00:03:51.026Z,44.04
2022-11-23T00:06:19.854Z,44.21
2022-11-23T00:08:48.513Z,43.95
2022-11-23T00:11:17.203Z,44.19
2022-11-23T00:13:46.011Z,43.85
2022-11-23T00:16:15.598Z,43.86
2022-11-23T00:18:44.320Z,43.95
2022-11-23T00:21:15.426Z,43.94
2022-11-23T00:23:43.958Z,43.82
2022-11-23T00:26:13.045Z,43.87
2022-11-23T00:28:42.432Z,43.69
2022-11-23T00:31:11.837Z,43.94
2022-11-23T00:33:40.625Z,43.74
2022-11-23T00:36:11.948Z,43.62
2022-11-23T00:38:42.161Z,43.53
2022-11-23T00:41:11.872Z,43.76
2022-11-23T00:43:40.503Z,43.61
2022-11-23T00:46:10.555Z,43.93
2022-11-23T00:48:39.134Z,43.76
2022-11-23T00:51:10.312Z,43.64
2022-11-23T00:53:39.131Z,43.84
2022-11-23T00:56:09.184Z,43.61
2022-11-23T00:58:39.004Z,43.44
2022-11-23T01:01:09.203Z,43.31
2022-11-23T01:03:38.801Z,43.46
2022-11-23T01:06:09.256Z,43.67
2022-11-23T01:08:37.771Z,43.19
2022-11-23T01:11:09.118Z,43.59
2022-11-23T01:13:37.838Z,43.46
2022-11-23T01:16:08.782Z,43.40
2022-11-23T01:18:37.326Z,43.34
2022-11-23T01:21:07.453Z,43.57
2022-11-23T01:23:35.924Z,43.48
2022-11-23T01:26:09.202Z,43.17
2022-11-23T01:28:38.600Z,43.37
2022-11-23T01:31:08.346Z,43.12
2022-11-23T01:33:36.890Z,43.34
2022-11-23T01:36:11.935Z,43.50
2022-11-23T01:38:40.596Z,43.29
2022-11-23T01:41:12.858Z,43.15
2022-11-23T01:43:41.471Z,43.47
2022-11-23T01:46:10.529Z,43.38
2022-11-23T01:48:40.609Z,43.28
2022-11-23T01:51:12.079Z,43.15
2022-11-23T01:53:40.618Z,43.12
2022-11-23T01:56:12.301Z,43.16
2022-11-23T01:58:41.483Z,43.24
2022-11-23T02:01:10.445Z,43.23
2022-11-23T02:03:39.180Z,43.30
2022-11-23T02:06:13.078Z,42.78
2022-11-23T02:08:41.694Z,42.94
2022-11-23T02:11:12.087Z,43.08
2022-11-23T02:13:40.669Z,43.21
2022-11-23T02:16:09.322Z,42.94
2022-11-23T02:18:37.850Z,42.81
2022-11-23T02:21:06.695Z,43.06
2022-11-23T02:23:38.707Z,43.23
2022-11-23T02:26:10.825Z,42.97
2022-11-23T02:28:41.483Z,42.76
2022-11-23T02:31:10.387Z,42.99
2022-11-23T02:33:39.407Z,42.94
2022-11-23T02:36:37.670Z,43.22
2022-11-23T02:39:09.929Z,42.74
2022-11-23T02:41:44.048Z,43.08
2022-11-23T02:44:24.193Z,43.11
2022-11-23T02:46:52.834Z,42.67
2022-11-23T02:49:21.459Z,42.76
2022-11-23T02:51:49.926Z,42.56
2022-11-23T02:54:18.426Z,42.66
2022-11-23T02:56:48.202Z,42.54
2022-11-23T02:59:16.665Z,42.66
2022-11-23T03:01:45.198Z,42.64
2022-11-23T03:04:13.669Z,42.75
2022-11-23T03:06:42.294Z,42.49
2022-11-23T03:09:11.042Z,42.56
2022-11-23T03:11:39.533Z,42.39
2022-11-23T03:14:09.570Z,42.56
2022-11-23T03:16:38.164Z,42.53
2022-11-23T03:19:06.611Z,42.42
2022-11-23T03:21:35.210Z,42.56
2022-11-23T03:24:03.912Z,42.56
2022-11-23T03:26:32.351Z,42.56
2022-11-23T03:29:00.835Z,42.61
2022-11-23T03:31:30.750Z,42.67
2022-11-23T03:33:59.235Z,42.34
2022-11-23T03:36:27.743Z,42.39
2022-11-23T03:38:56.234Z,42.30
2022-11-23T03:41:24.716Z,42.51
2022-11-23T03:43:53.285Z,42.41
2022-11-23T03:46:21.879Z,42.23
2022-11-23T03:48:51.680Z,42.35
2022-11-23T03:51:20.162Z,42.41
2022-11-23T03:53:48.617Z,42.28
2022-11-23T03:56:17.101Z,42.31
2022-11-23T03:58:45.684Z,42.34
2022-11-23T04:01:14.312Z,42.44
2022-11-23T04:03:42.848Z,42.07
2022-11-23T04:06:12.693Z,42.39
2022-11-23T04:08:41.145Z,42.09
2022-11-23T04:11:09.629Z,42.04
2022-11-23T04:13:38.164Z,42.04
2022-11-23T04:16:08.250Z,42.02
2022-11-23T04:18:36.704Z,42.04
2022-11-23T04:21:05.448Z,41.98
2022-11-23T04:23:35.460Z,42.09
2022-11-23T04:26:03.890Z,42.02
2022-11-23T04:28:33.741Z,42.10
2022-11-23T04:31:02.288Z,42.03
2022-11-23T04:33:31.714Z,41.94
2022-11-23T04:36:00.292Z,41.80
2022-11-23T04:38:28.870Z,42.07
2022-11-23T04:40:58.874Z,42.02
2022-11-23T04:43:27.372Z,41.90
2022-11-23T04:45:56.053Z,42.01
2022-11-23T04:48:24.529Z,41.99
2022-11-23T04:50:55.614Z,41.92
2022-11-23T04:53:24.462Z,42.02
2022-11-23T04:55:53.041Z,42.04
2022-11-23T04:58:22.992Z,41.97
2022-11-23T05:00:51.547Z,41.88
2022-11-23T05:03:20.328Z,41.74
2022-11-23T05:05:48.813Z,41.87
2022-11-23T05:08:17.349Z,41.66
2022-11-23T05:10:45.924Z,41.92
2022-11-23T05:13:15.010Z,41.73
2022-11-23T05:15:44.951Z,41.85
2022-11-23T05:18:13.571Z,41.70
2022-11-23T05:20:42.187Z,41.77
2022-11-23T05:23:11.567Z,41.70
2022-11-23T05:25:40.191Z,41.68
2022-11-23T05:28:30.462Z,41.46
2022-11-23T05:31:00.573Z,41.70
2022-11-23T05:33:29.220Z,41.70
2022-11-23T05:35:57.755Z,41.62
2022-11-23T05:38:26.389Z,41.62
2022-11-23T05:40:54.907Z,41.51
2022-11-23T05:43:23.443Z,41.48
2022-11-23T05:45:51.983Z,41.61
2022-11-23T05:48:21.784Z,41.62
2022-11-23T05:50:51.892Z,41.40
2022-11-23T05:53:20.303Z,41.63
2022-11-23T05:55:48.855Z,41.26
2022-11-23T05:58:17.335Z,41.33
2022-11-23T06:00:47.064Z,41.50
2022-11-23T06:03:15.531Z,41.04
2022-11-23T06:05:47.879Z,41.10
2022-11-23T06:08:16.393Z,41.37
2022-11-23T06:10:44.976Z,41.48
2022-11-23T06:13:13.718Z,41.41
2022-11-23T06:15:42.418Z,41.42
2022-11-23T06:18:11.025Z,41.56
2022-11-23T06:20:39.673Z,41.42
2022-11-23T06:23:09.596Z,41.33
2022-11-23T06:25:39.453Z,41.49
2022-11-23T06:28:07.923Z,41.56
2022-11-23T06:30:36.382Z,41.69
2022-11-23T06:33:05.520Z,41.52
2022-11-23T06:35:34.067Z,41.54
2022-11-23T06:38:02.677Z,41.79
2022-11-23T06:40:32.555Z,41.58
2022-11-23T06:43:01.192Z,41.54
2022-11-23T06:45:29.939Z,41.69
2022-11-23T06:47:58.837Z,41.04
2022-11-23T06:50:27.331Z,41.62
2022-11-23T06:52:57.328Z,41.50
2022-11-23T06:55:26.084Z,41.61
2022-11-23T06:57:57.796Z,41.56
2022-11-23T07:00:26.515Z,41.24
2022-11-23T07:02:55.221Z,41.58
2022-11-23T07:05:23.936Z,41.58
2022-11-23T07:07:52.465Z,41.34
2022-11-23T07:10:21.200Z,41.65
2022-11-23T07:12:49.690Z,41.48
2022-11-23T07:15:19.722Z,41.40
2022-11-23T07:17:48.217Z,41.51
2022-11-23T07:20:18.096Z,41.38
2022-11-23T07:22:46.639Z,41.60
2022-11-23T07:25:18.475Z,41.37
2022-11-23T07:27:47.985Z,41.40
2022-11-23T07:30:18.974Z,41.53
2022-11-23T07:32:47.522Z,41.27
2022-11-23T07:35:16.023Z,41.39
2022-11-23T07:37:44.552Z,41.47
2022-11-23T07:40:13.471Z,41.52
2022-11-23T07:42:45.038Z,42.66
2022-11-23T07:45:13.968Z,41.47
2022-11-23T07:47:43.823Z,41.66
2022-11-23T07:50:14.149Z,41.76
2022-11-23T07:52:45.493Z,41.91
2022-11-23T07:55:13.950Z,41.84
2022-11-23T07:57:46.025Z,41.95
2022-11-23T08:00:16.352Z,41.95
2022-11-23T08:03:11.432Z,42.07
2022-11-23T08:05:35.827Z,42.20
2022-11-23T08:08:05.015Z,42.32
2022-11-23T08:10:34.987Z,41.89
2022-11-23T08:13:07.100Z,41.88
2022-11-23T08:15:35.661Z,41.78
2022-11-23T08:18:05.792Z,42.01
2022-11-23T08:20:34.515Z,41.62
2022-11-23T08:23:02.975Z,41.90
2022-11-23T08:25:32.105Z,41.71
2022-11-23T08:28:01.799Z,41.87
2022-11-23T08:30:30.893Z,41.66
2022-11-23T08:32:59.478Z,41.69
2022-11-23T08:35:29.467Z,41.63
2022-11-23T08:37:57.994Z,41.86
2022-11-23T08:40:26.821Z,41.66
2022-11-23T08:42:56.169Z,41.60
2022-11-23T08:45:24.829Z,41.65
2022-11-23T08:47:55.851Z,41.61
2022-11-23T08:50:24.429Z,41.54
2022-11-23T08:52:57.892Z,41.62
2022-11-23T08:55:26.727Z,41.55
2022-11-23T08:57:56.967Z,41.32
2022-11-23T09:00:26.305Z,41.71
2022-11-23T09:02:54.876Z,41.47
2022-11-23T09:05:23.401Z,41.45
2022-11-23T09:07:52.039Z,41.39
2022-11-23T09:10:22.029Z,41.36
2022-11-23T09:12:50.497Z,41.46
2022-11-23T09:15:19.317Z,41.24
2022-11-23T09:17:47.792Z,41.26
2022-11-23T09:20:16.997Z,41.35
2022-11-23T09:22:45.576Z,41.36
2022-11-23T09:25:14.124Z,41.47
2022-11-23T09:27:43.977Z,41.31
2022-11-23T09:30:13.980Z,41.33
2022-11-23T09:32:42.429Z,41.19
2022-11-23T09:35:11.266Z,41.24
2022-11-23T09:37:39.743Z,41.29
2022-11-23T09:40:10.765Z,41.17
2022-11-23T09:42:58.162Z,41.38
2022-11-23T09:45:31.891Z,41.33
2022-11-23T09:48:20.105Z,41.34
2022-11-23T09:50:49.627Z,40.93
2022-11-23T09:53:21.107Z,41.05
2022-11-23T09:55:50.790Z,41.10
2022-11-23T09:58:22.542Z,41.03
2022-11-23T10:00:55.205Z,41.00
2022-11-23T10:03:25.883Z,41.31
2022-11-23T10:06:03.339Z,41.23
2022-11-23T10:08:44.340Z,41.35
2022-11-23T10:11:28.220Z,41.28
2022-11-23T10:14:06.692Z,41.30
2022-11-23T10:16:41.015Z,41.23
2022-11-23T10:19:15.400Z,41.57
2022-11-23T10:21:47.980Z,41.22
2022-11-23T10:24:20.467Z,40.88
2022-11-23T10:26:50.661Z,40.91
2022-11-23T10:29:26.714Z,40.83
2022-11-23T10:31:57.209Z,40.86
2022-11-23T10:34:39.439Z,41.13
2022-11-23T10:37:12.029Z,40.95
2022-11-23T10:39:40.498Z,40.92
2022-11-23T10:42:19.288Z,41.12
2022-11-23T10:44:49.132Z,41.12
2022-11-23T10:47:36.432Z,41.25
2022-11-23T10:50:12.826Z,40.99
2022-11-23T10:52:42.071Z,40.86
2022-11-23T10:55:12.076Z,40.86
2022-11-23T10:57:43.903Z,40.94
2022-11-23T11:00:19.620Z,41.16
2022-11-23T11:02:49.265Z,41.00
2022-11-23T11:08:20.012Z,40.79
2022-11-23T11:10:50.537Z,40.68
2022-11-23T11:13:31.142Z,41.02
2022-11-23T11:16:02.867Z,40.83
2022-11-23T11:18:33.585Z,40.74
2022-11-23T11:21:05.480Z,40.64
2022-11-23T11:23:34.144Z,40.87
2022-11-23T11:26:14.912Z,41.07
2022-11-23T11:28:44.080Z,40.75
2022-11-23T11:31:40.361Z,40.52
2022-11-23T11:34:18.012Z,40.95
2022-11-23T11:36:50.178Z,40.51
2022-11-23T11:39:24.226Z,40.54
2022-11-23T11:41:52.712Z,40.69
2022-11-23T11:44:22.871Z,40.35
2022-11-23T11:46:57.931Z,40.85
2022-11-23T11:49:28.402Z,40.68
2022-11-23T11:52:01.319Z,40.46
2022-11-23T11:54:36.383Z,40.66
2022-11-23T11:57:06.951Z,40.42
2022-11-23T11:59:43.066Z,40.73
2022-11-23T12:02:21.671Z,40.65
2022-11-23T12:04:57.022Z,40.38
2022-11-23T12:07:30.772Z,40.64
2022-11-23T12:10:06.606Z,40.30
2022-11-23T12:12:36.704Z,40.32
2022-11-23T12:15:26.360Z,40.48
2022-11-23T12:18:14.337Z,40.77
2022-11-23T12:20:49.702Z,40.59
2022-11-23T12:23:27.720Z,40.64
2022-11-23T12:26:09.612Z,40.57
2022-11-23T12:28:49.102Z,40.62
2022-11-23T12:31:22.038Z,40.57
2022-11-23T12:34:05.279Z,40.57
2022-11-23T12:37:05.033Z,40.50
2022-11-23T12:39:50.833Z,40.60
2022-11-23T12:42:21.982Z,40.22
2022-11-23T12:44:58.563Z,40.21
2022-11-23T12:47:36.197Z,40.25
2022-11-23T12:50:13.486Z,40.35
2022-11-23T12:52:56.146Z,40.42
2022-11-23T12:55:27.074Z,40.25
2022-11-23T12:58:00.236Z,40.13
2022-11-23T13:00:30.925Z,40.00
2022-11-23T13:03:38.697Z,40.37
2022-11-23T13:06:49.953Z,40.03
2022-11-23T13:09:43.336Z,40.29
2022-11-23T13:12:31.560Z,40.56
2022-11-23T13:15:11.788Z,40.44
2022-11-23T13:17:43.422Z,40.58
2022-11-23T13:20:26.279Z,40.63
2022-11-23T13:22:56.581Z,40.27
2022-11-23T13:25:28.767Z,40.55
2022-11-23T13:28:00.308Z,40.33
2022-11-23T13:33:35.750Z,40.43
2022-11-23T13:36:11.479Z,40.49
2022-11-23T13:38:45.701Z,40.41
2022-11-23T13:42:00.631Z,40.59
2022-11-23T13:44:31.774Z,40.28
2022-11-23T13:47:09.010Z,40.20
2022-11-23T13:49:42.238Z,40.12
2022-11-23T13:52:32.378Z,40.25
2022-11-23T13:55:16.964Z,40.22
2022-11-23T13:57:48.595Z,39.96
2022-11-23T14:00:49.428Z,40.44
2022-11-23T14:04:20.130Z,40.19
2022-11-23T14:06:51.379Z,40.01
2022-11-23T14:09:24.665Z,39.98
2022-11-23T14:12:03.359Z,40.22
2022-11-23T14:14:41.948Z,40.17
2022-11-23T14:17:59.664Z,40.00
2022-11-23T14:21:12.691Z,40.27
2022-11-23T14:24:19.305Z,40.05
2022-11-23T14:27:17.480Z,40.17
2022-11-23T14:30:08.986Z,40.12
2022-11-23T14:32:47.905Z,39.92
2022-11-23T14:35:27.170Z,39.87
2022-11-23T14:38:37.432Z,40.12
2022-11-23T14:41:08.483Z,40.10
2022-11-23T14:43:41.180Z,39.94
2022-11-23T14:46:16.491Z,39.94
2022-11-23T14:48:45.099Z,39.85
2022-11-23T14:51:15.683Z,39.89
2022-11-23T14:53:47.257Z,39.85
2022-11-23T14:56:29.257Z,39.90
2022-11-23T14:59:03.094Z,39.67
2022-11-23T15:01:31.670Z,39.69
2022-11-23T15:04:00.946Z,39.64
2022-11-23T15:06:32.525Z,39.75
2022-11-23T15:09:08.501Z,39.73
2022-11-23T15:11:38.218Z,39.60
2022-11-23T15:14:20.215Z,39.69
2022-11-23T15:16:49.566Z,39.78
2022-11-23T15:19:28.299Z,39.74
2022-11-23T15:21:56.875Z,39.71
2022-11-23T15:24:26.275Z,39.79
2022-11-23T15:26:55.092Z,39.83
2022-11-23T15:29:34.450Z,39.84
2022-11-23T15:34:52.580Z,39.89
2022-11-23T15:37:21.180Z,39.81
2022-11-23T15:39:49.688Z,39.74
2022-11-23T15:42:19.460Z,39.93
2022-11-23T15:44:51.747Z,39.91
2022-11-23T15:47:27.557Z,39.87
2022-11-23T15:50:01.367Z,39.73
2022-11-23T15:52:31.204Z,39.71
2022-11-23T15:55:08.607Z,39.88
2022-11-23T15:57:38.068Z,39.83
2022-11-23T16:00:10.681Z,39.72
2022-11-23T16:02:39.271Z,39.88
2022-11-23T16:05:14.924Z,39.73
2022-11-23T16:07:57.540Z,39.77
2022-11-23T16:10:26.824Z,39.65
2022-11-23T16:12:56.336Z,39.83
2022-11-23T16:15:43.647Z,39.09
2022-11-23T16:18:25.697Z,39.54
2022-11-23T16:20:56.709Z,39.75
2022-11-23T16:23:26.784Z,39.67
2022-11-23T16:25:58.105Z,39.50
2022-11-23T16:28:29.816Z,39.67
2022-11-23T16:31:00.055Z,39.62
2022-11-23T16:33:28.836Z,39.74
2022-11-23T16:35:57.335Z,39.69
2022-11-23T16:38:26.608Z,39.75
2022-11-23T16:40:56.445Z,40.11
2022-11-23T16:43:25.129Z,40.23
2022-11-23T16:45:53.872Z,39.83
2022-11-23T16:48:40.786Z,40.04
2022-11-23T16:51:14.307Z,39.83
2022-11-23T16:54:11.883Z,40.60
2022-11-23T16:56:33.037Z,40.18
2022-11-23T16:59:01.676Z,40.43
2022-11-23T17:01:31.204Z,40.30
2022-11-23T17:04:01.217Z,40.40
2022-11-23T17:06:29.846Z,40.53
2022-11-23T17:09:04.700Z,40.80
2022-11-23T17:11:36.994Z,40.59
2022-11-23T17:14:05.694Z,40.79
2022-11-23T17:16:35.314Z,41.06
2022-11-23T17:19:05.307Z,40.64
2022-11-23T17:21:33.907Z,40.67
2022-11-23T17:24:03.083Z,40.61
2022-11-23T17:26:34.659Z,40.83
2022-11-23T17:29:04.350Z,41.06
2022-11-23T17:31:33.112Z,40.87
2022-11-23T17:34:01.776Z,41.27
2022-11-23T17:36:31.766Z,40.97
2022-11-23T17:39:00.804Z,41.06
2022-11-23T17:41:30.066Z,40.94
2022-11-23T17:44:00.069Z,40.87
2022-11-23T17:46:31.630Z,40.71
2022-11-23T17:49:02.479Z,40.69
2022-11-23T17:51:32.403Z,40.74
2022-11-23T17:54:00.920Z,40.58
2022-11-23T17:56:29.612Z,40.66
2022-11-23T17:58:58.122Z,40.69
2022-11-23T18:01:26.686Z,40.77
2022-11-23T18:03:56.441Z,40.77
2022-11-23T18:06:40.189Z,40.73
2022-11-23T18:09:11.936Z,40.86
2022-11-23T18:11:41.568Z,40.60
2022-11-23T18:14:11.757Z,40.95
2022-11-23T18:16:40.582Z,40.83
2022-11-23T18:19:09.058Z,40.80
2022-11-23T18:21:39.154Z,41.02
2022-11-23T18:24:08.954Z,41.83
2022-11-23T18:26:37.551Z,41.63
2022-11-23T18:29:06.539Z,41.72
2022-11-23T18:31:35.252Z,41.56
2022-11-23T18:34:05.037Z,41.39
2022-11-23T18:36:33.817Z,41.64
2022-11-23T18:39:03.721Z,41.94
2022-11-23T18:41:32.373Z,41.77
2022-11-23T18:44:00.963Z,41.58
2022-11-23T18:46:32.141Z,41.50
2022-11-23T18:49:00.850Z,41.61
2022-11-23T18:51:29.386Z,41.72
2022-11-23T18:53:58.736Z,41.42
2022-11-23T18:56:28.836Z,41.50
2022-11-23T18:58:57.403Z,41.27
2022-11-23T19:01:26.876Z,41.36
2022-11-23T19:03:56.643Z,41.96
2022-11-23T19:06:25.535Z,41.51
2022-11-23T19:08:54.778Z,41.34
2022-11-23T19:11:24.642Z,41.47
2022-11-23T19:13:55.841Z,41.40
2022-11-23T19:16:25.723Z,41.34
2022-11-23T19:18:57.947Z,41.09
2022-11-23T19:21:28.612Z,41.15
2022-11-23T19:23:59.941Z,41.30
2022-11-23T19:26:29.598Z,41.17
2022-11-23T19:28:59.882Z,41.22
2022-11-23T19:31:30.110Z,40.97
2022-11-23T19:34:00.793Z,41.27
2022-11-23T19:36:31.390Z,41.06
2022-11-23T19:39:18.563Z,41.04
2022-11-23T19:42:07.178Z,41.20
2022-11-23T19:44:56.883Z,41.32
2022-11-23T19:47:25.421Z,41.08
2022-11-23T19:49:54.359Z,41.16
2022-11-23T19:52:23.004Z,41.10
2022-11-23T19:54:51.500Z,40.98
2022-11-23T19:57:20.078Z,40.98
2022-11-23T19:59:48.861Z,40.89
2022-11-23T20:02:25.632Z,41.02
2022-11-23T20:04:54.283Z,41.03
2022-11-23T20:07:22.924Z,40.99
2022-11-23T20:09:51.510Z,40.79
2022-11-23T20:12:21.019Z,40.88
2022-11-23T20:14:49.592Z,40.75
2022-11-23T20:17:19.512Z,40.90
2022-11-23T20:19:48.163Z,41.01
2022-11-23T20:22:16.731Z,41.06
2022-11-23T20:24:45.347Z,40.84
2022-11-23T20:27:13.834Z,40.95
2022-11-23T20:29:42.467Z,40.69
2022-11-23T20:32:12.842Z,40.91
2022-11-23T20:34:42.802Z,40.80
2022-11-23T20:37:11.482Z,40.79
2022-11-23T20:39:40.051Z,40.85
2022-11-23T20:42:09.095Z,40.65
2022-11-23T20:44:38.196Z,40.58
2022-11-23T20:47:07.146Z,40.80
2022-11-23T20:49:35.697Z,40.65
2022-11-23T20:52:06.055Z,40.70
2022-11-23T20:54:34.731Z,40.59
2022-11-23T20:57:03.889Z,40.53
2022-11-23T20:59:33.019Z,40.67
2022-11-23T21:02:01.768Z,40.83
2022-11-23T21:04:30.368Z,40.72
2022-11-23T21:06:59.120Z,40.79
2022-11-23T21:09:28.962Z,40.75
2022-11-23T21:12:15.290Z,40.85
2022-11-23T21:14:43.813Z,40.66
2022-11-23T21:17:12.722Z,40.83
2022-11-23T21:19:41.270Z,40.64
2022-11-23T21:22:11.162Z,40.78
2022-11-23T21:24:41.173Z,40.54
2022-11-23T21:27:12.239Z,40.54
2022-11-23T21:29:40.917Z,40.51
2022-11-23T21:32:14.819Z,40.60
2022-11-23T21:34:43.635Z,40.55
2022-11-23T21:37:12.591Z,40.67
2022-11-23T21:39:46.581Z,40.48
2022-11-23T21:42:18.312Z,40.66
2022-11-23T21:44:46.853Z,40.60
2022-11-23T21:47:16.649Z,40.67
2022-11-23T21:49:45.259Z,40.65
2022-11-23T21:52:13.837Z,40.46
2022-11-23T21:54:48.834Z,40.63
2022-11-23T21:57:19.676Z,40.65
2022-11-23T21:59:48.162Z,40.62
2022-11-23T22:02:16.919Z,40.57
2022-11-23T22:04:45.649Z,40.77
2022-11-23T22:07:14.358Z,40.42
2022-11-23T22:09:44.361Z,40.34
2022-11-23T22:12:13.014Z,40.75
2022-11-23T22:14:41.973Z,40.61
2022-11-23T22:17:10.598Z,40.66
2022-11-23T22:19:39.253Z,40.73
2022-11-23T22:22:08.040Z,40.88
2022-11-23T22:24:37.056Z,40.78
2022-11-23T22:27:07.272Z,40.67
2022-11-23T22:29:36.030Z,40.75
2022-11-23T22:32:04.803Z,40.75
2022-11-23T22:34:35.728Z,40.61
2022-11-23T22:37:10.178Z,40.67
2022-11-23T22:39:39.544Z,40.68
2022-11-23T22:42:09.629Z,40.64
2022-11-23T22:44:39.565Z,40.77
2022-11-23T22:47:08.353Z,40.76
2022-11-23T22:49:37.112Z,40.73
2022-11-23T22:52:06.117Z,40.62
2022-11-23T22:54:35.096Z,40.60
2022-11-23T22:57:03.791Z,40.60
2022-11-23T22:59:33.922Z,40.61
2022-11-23T23:02:02.462Z,40.50
2022-11-23T23:04:31.580Z,40.58
2022-11-23T23:07:00.601Z,40.71
2022-11-23T23:09:29.330Z,40.56
2022-11-23T23:11:58.235Z,40.60
2022-11-23T23:14:27.043Z,40.48
2022-11-23T23:16:57.149Z,40.50
2022-11-23T23:19:26.156Z,40.45
2022-11-23T23:21:54.790Z,40.61
2022-11-23T23:24:23.429Z,40.54
2022-11-23T23:26:51.973Z,40.51
2022-11-23T23:29:20.973Z,40.57
2022-11-23T23:31:49.680Z,40.53
2022-11-23T23:34:19.687Z,40.37
2022-11-23T23:36:49.797Z,40.33
2022-11-23T23:39:18.379Z,40.41
2022-11-23T23:41:46.961Z,40.31
2022-11-23T23:44:15.502Z,40.50
2022-11-23T23:46:44.957Z,40.44
2022-11-23T23:49:13.633Z,40.55
2022-11-23T23:51:47.545Z,40.21
2022-11-23T23:54:18.911Z,40.37
2022-11-23T23:56:47.527Z,40.29
2022-11-23T23:59:16.335Z,40.20
